Time;durP1;ratioP1;P1;durP2;ratioP2;P2;SDS_P1;SDS_P2;PMS_P1;PMS_P2;Temp;Humidity;BMP_temperature;BMP_pressure;BME280_temperature;BME280_humidity;BME280_pressure;Samples;Min_cycle;Max_cycle;Signal;HPM_P1;HPM_P2
2022/05/28 00:01:19;;;;;;;2.78;1.00;;;;;;;26.74;46.59;100151.00;5046648;28;20037;-71
2022/05/28 00:03:46;;;;;;;4.97;1.15;;;;;;;26.72;46.34;100155.81;5048389;28;20418;-73
2022/05/28 00:06:14;;;;;;;3.40;1.23;;;;;;;26.73;46.50;100151.28;5046694;28;20041;-73
2022/05/28 00:08:40;;;;;;;3.63;0.93;;;;;;;26.73;46.53;100153.94;5048183;28;20045;-72
2022/05/28 00:11:17;;;;;;;4.10;0.90;;;;;;;26.71;46.43;100151.53;5044662;28;20457;-73
2022/05/28 00:13:43;;;;;;;2.25;0.80;;;;;;;26.72;46.61;100150.47;5046386;28;20546;-71
2022/05/28 00:16:10;;;;;;;3.40;1.00;;;;;;;26.74;46.32;100150.22;5046721;28;20029;-72
2022/05/28 00:18:37;;;;;;;3.20;1.08;;;;;;;26.74;46.56;100148.34;5048106;28;20393;-71
2022/05/28 00:21:03;;;;;;;4.38;1.17;;;;;;;26.75;46.27;100152.63;5045469;28;20033;-71
2022/05/28 00:23:28;;;;;;;1.90;0.68;;;;;;;26.75;46.34;100152.63;5047743;28;20665;-73
2022/05/28 00:25:54;;;;;;;3.50;0.93;;;;;;;26.75;46.33;100141.13;5046691;28;20017;-73
2022/05/28 00:28:21;;;;;;;3.72;1.38;;;;;;;26.76;46.16;100132.84;5047158;28;20033;-72
2022/05/28 00:30:47;;;;;;;2.72;1.08;;;;;;;26.76;46.39;100129.38;5046033;28;20033;-73
2022/05/28 00:33:12;;;;;;;2.85;0.82;;;;;;;26.76;46.39;100122.16;5047849;28;20492;-72
2022/05/28 00:35:38;;;;;;;3.00;0.90;;;;;;;26.76;46.32;100116.81;5047779;28;20107;-73
2022/05/28 00:38:03;;;;;;;4.43;1.30;;;;;;;26.75;46.45;100120.56;5046944;28;20317;-72
2022/05/28 00:40:29;;;;;;;2.95;0.77;;;;;;;26.76;46.53;100118.69;5048034;28;20493;-73
2022/05/28 00:43:05;;;;;;;2.53;1.02;;;;;;;26.73;46.51;100120.00;5049854;28;20512;-73
2022/05/28 00:45:33;;;;;;;2.50;0.88;;;;;;;26.75;46.44;100115.22;5050669;28;20120;-70
2022/05/28 00:48:03;;;;;;;3.92;1.42;;;;;;;26.75;46.49;100114.41;5049725;28;20056;-74
2022/05/28 00:50:30;;;;;;;2.53;0.90;;;;;;;26.75;46.39;100112.53;5051558;28;20036;-73
2022/05/28 00:52:56;;;;;;;2.22;1.00;;;;;;;26.73;46.39;100117.34;5050753;28;20029;-71
2022/05/28 00:55:22;;;;;;;2.67;1.08;;;;;;;26.74;46.37;100113.59;5051621;28;20428;-74
2022/05/28 00:57:49;;;;;;;4.30;1.05;;;;;;;26.73;46.16;100101.31;5049548;28;20021;-71
2022/05/28 01:00:23;;;;;;;3.42;1.00;;;;;;;26.72;46.24;100094.34;5051476;28;20079;-75
2022/05/28 01:02:58;;;;;;;4.23;1.13;;;;;;;26.73;46.03;100095.97;5048785;28;20060;-73
2022/05/28 01:05:27;;;;;;;2.92;1.05;;;;;;;26.73;46.07;100095.16;5050306;28;20044;-72
2022/05/28 01:08:10;;;;;;;5.05;0.90;;;;;;;26.71;46.05;100083.91;5049103;28;20308;-74
2022/05/28 01:10:53;;;;;;;3.67;1.65;;;;;;;26.71;46.02;100078.56;5050692;28;20041;-71
2022/05/28 01:13:42;;;;;;;4.40;1.10;;;;;;;26.71;46.08;100079.38;5051093;28;20025;-73
2022/05/28 01:16:30;;;;;;;2.60;1.00;;;;;;;26.70;45.99;100072.44;5055219;28;20051;-70
2022/05/28 01:19:04;;;;;;;4.05;0.80;;;;;;;26.70;45.90;100068.94;5041569;28;20041;-74
2022/05/28 01:21:53;;;;;;;3.17;1.05;;;;;;;26.70;45.93;100069.75;5056374;28;20534;-73
2022/05/28 01:24:35;;;;;;;3.53;0.98;;;;;;;26.71;45.82;100068.69;5055200;28;20032;-72
2022/05/28 01:27:12;;;;;;;1.80;0.77;;;;;;;26.71;45.72;100066.03;5057282;28;20078;-72
2022/05/28 01:29:51;;;;;;;3.72;1.02;;;;;;;26.71;45.83;100050.00;5057163;28;20044;-72
2022/05/28 01:32:19;;;;;;;1.92;0.95;;;;;;;26.74;45.58;100037.97;5057465;28;20439;-72
2022/05/28 01:34:45;;;;;;;3.78;1.27;;;;;;;26.74;45.68;100044.13;5055807;28;20038;-73
2022/05/28 01:37:12;;;;;;;2.10;0.90;;;;;;;26.75;45.67;100035.03;5048842;28;20037;-72
2022/05/28 01:39:46;;;;;;;4.20;1.55;;;;;;;26.75;45.89;100037.72;5049332;28;20463;-72
2022/05/28 01:42:13;;;;;;;2.03;0.73;;;;;;;26.76;45.67;100031.31;5049706;28;20449;-72
2022/05/28 01:44:42;;;;;;;5.47;1.38;;;;;;;26.76;45.72;100020.63;5050513;28;20095;-72
2022/05/28 01:47:10;;;;;;;5.85;1.15;;;;;;;26.76;45.85;100017.13;5048224;28;20523;-72
2022/05/28 01:49:36;;;;;;;2.47;0.85;;;;;;;26.75;45.90;100013.66;5050633;28;20044;-72
2022/05/28 01:52:02;;;;;;;2.35;1.08;;;;;;;26.75;45.97;100016.34;5048990;28;20033;-72
2022/05/28 01:54:33;;;;;;;3.25;1.00;;;;;;;26.74;46.16;100012.06;5050622;28;20028;-72
2022/05/28 01:56:59;;;;;;;6.88;1.38;;;;;;;26.73;46.23;100005.09;5048959;28;20028;-72
2022/05/28 01:59:34;;;;;;;3.28;0.80;;;;;;;26.74;46.41;100003.25;5048766;28;20029;-73
2022/05/28 02:02:03;;;;;;;4.68;1.08;;;;;;;26.73;46.34;99999.75;5050093;28;20036;-74
2022/05/28 02:04:30;;;;;;;4.72;1.90;;;;;;;26.73;46.37;99999.75;5050453;28;20129;-75
2022/05/28 02:06:55;;;;;;;5.10;1.52;;;;;;;26.73;46.52;99986.41;5049068;28;20051;-73
2022/05/28 02:09:26;;;;;;;5.15;1.10;;;;;;;26.72;46.39;99976.78;5050256;28;20318;-71
2022/05/28 02:12:13;;;;;;;3.05;1.10;;;;;;;26.73;46.27;99978.38;5049332;28;20083;-73
2022/05/28 02:15:06;;;;;;;2.55;0.90;;;;;;;26.70;46.08;99984.25;5050332;28;20112;-72
2022/05/28 02:17:58;;;;;;;4.82;1.00;;;;;;;26.68;46.08;99983.72;5049482;28;20041;-73
2022/05/28 02:20:51;;;;;;;3.00;1.25;;;;;;;26.67;46.07;99984.78;5049902;28;20115;-76
2022/05/28 02:23:24;;;;;;;4.80;1.05;;;;;;;26.68;46.13;99981.03;5046479;28;20048;-71
2022/05/28 02:25:56;;;;;;;3.22;0.85;;;;;;;26.69;45.98;99971.16;5048456;28;20053;-70
2022/05/28 02:28:23;;;;;;;2.15;0.95;;;;;;;26.70;45.90;99981.56;5049103;28;20044;-73
2022/05/28 02:30:52;;;;;;;5.22;0.98;;;;;;;26.71;45.83;99983.19;5049166;28;20017;-72
2022/05/28 02:33:18;;;;;;;2.50;1.02;;;;;;;26.71;45.79;99985.84;5048120;28;20037;-69
2022/05/28 02:35:44;;;;;;;4.88;1.10;;;;;;;26.71;45.64;99983.19;5049481;28;20057;-74
2022/05/28 02:38:14;;;;;;;5.28;1.10;;;;;;;26.72;45.80;99973.28;5047982;28;20041;-71
2022/05/28 02:40:40;;;;;;;4.22;0.90;;;;;;;26.71;45.51;99975.16;5049558;28;20029;-71
2022/05/28 02:43:05;;;;;;;2.22;0.80;;;;;;;26.71;45.41;99985.84;5048740;28;20025;-70
2022/05/28 02:45:31;;;;;;;3.38;0.85;;;;;;;26.73;45.32;99982.91;5049679;28;20055;-73
2022/05/28 02:47:56;;;;;;;3.38;0.70;;;;;;;26.72;45.24;99984.78;5048105;28;20511;-74
2022/05/28 02:50:26;;;;;;;3.65;0.95;;;;;;;26.73;45.40;99983.72;5049110;28;20474;-72
2022/05/28 02:52:52;;;;;;;5.10;1.27;;;;;;;26.73;45.06;99978.38;5047342;28;20155;-70
2022/05/28 02:55:17;;;;;;;3.60;1.02;;;;;;;26.72;45.29;99963.41;5048618;28;20116;-70
2022/05/28 02:57:43;;;;;;;3.30;1.05;;;;;;;26.71;45.17;99964.47;5047172;28;20028;-74
2022/05/28 03:00:09;;;;;;;4.85;0.88;;;;;;;26.72;45.19;99968.75;5049119;28;20110;-73
2022/05/28 03:02:34;;;;;;;3.58;1.27;;;;;;;26.71;45.01;99966.34;5048598;28;20063;-72
2022/05/28 03:04:59;;;;;;;3.28;1.17;;;;;;;26.71;45.17;99953.00;5047319;28;20534;-75
2022/05/28 03:07:25;;;;;;;5.90;1.35;;;;;;;26.70;45.34;99962.88;5047464;28;20052;-72
2022/05/28 03:09:50;;;;;;;3.20;1.10;;;;;;;26.70;45.01;99957.53;5048975;28;20492;-71
2022/05/28 03:12:16;;;;;;;4.53;1.20;;;;;;;26.70;45.17;99954.06;5048708;28;20373;-74
2022/05/28 03:14:41;;;;;;;3.03;1.23;;;;;;;26.68;45.14;99946.31;5047488;28;20128;-72
2022/05/28 03:17:07;;;;;;;2.08;1.30;;;;;;;26.68;45.11;99951.66;5047423;28;20488;-72
2022/05/28 03:19:32;;;;;;;5.45;1.20;;;;;;;26.69;45.18;99947.91;5048489;28;20491;-70
2022/05/28 03:21:58;;;;;;;3.70;0.90;;;;;;;26.68;45.22;99946.31;5047281;28;21073;-73
2022/05/28 03:24:23;;;;;;;4.10;1.30;;;;;;;26.68;45.22;99948.97;5046640;28;20028;-70
2022/05/28 03:26:49;;;;;;;4.05;1.00;;;;;;;26.69;45.35;99949.78;5047444;28;20107;-72
2022/05/28 03:29:14;;;;;;;3.53;1.52;;;;;;;26.68;45.56;99954.31;5046642;28;20029;-71
2022/05/28 03:31:40;;;;;;;2.33;1.38;;;;;;;26.68;45.37;99958.84;5048507;28;20032;-71
2022/05/28 03:34:05;;;;;;;2.47;1.00;;;;;;;26.68;45.27;99950.84;5047271;28;20032;-73
2022/05/28 03:36:30;;;;;;;3.20;0.90;;;;;;;26.68;45.42;99954.31;5048244;28;20082;-73
2022/05/28 03:38:56;;;;;;;2.97;0.95;;;;;;;26.69;45.35;99955.91;5045616;28;20048;-73
2022/05/28 03:41:22;;;;;;;3.63;1.17;;;;;;;26.70;45.38;99962.88;5046841;28;20029;-72
2022/05/28 03:43:48;;;;;;;3.28;1.27;;;;;;;26.70;45.30;99968.22;5047390;28;20082;-71
2022/05/28 03:46:26;;;;;;;3.03;0.95;;;;;;;26.69;45.20;99974.63;5047384;28;20541;-71
2022/05/28 03:48:56;;;;;;;3.22;1.02;;;;;;;26.71;45.37;99980.50;5047180;28;20512;-74
2022/05/28 03:51:22;;;;;;;3.10;0.85;;;;;;;26.71;45.43;99991.19;5047920;28;20025;-70
2022/05/28 03:53:48;;;;;;;4.70;1.02;;;;;;;26.72;45.35;99995.47;5044266;28;20029;-73
2022/05/28 03:56:13;;;;;;;3.75;1.10;;;;;;;26.72;45.33;99984.78;5046643;28;20037;-73
2022/05/28 03:58:38;;;;;;;1.77;0.82;;;;;;;26.73;45.27;99983.72;5046215;28;20029;-74
2022/05/28 04:01:04;;;;;;;2.08;1.02;;;;;;;26.72;45.21;99982.13;5047464;28;20039;-73
2022/05/28 04:03:30;;;;;;;4.78;1.00;;;;;;;26.72;45.27;99992.00;5046235;28;20033;-71
2022/05/28 04:05:56;;;;;;;3.60;1.00;;;;;;;26.71;45.30;99991.19;5047721;28;20569;-72
2022/05/28 04:08:22;;;;;;;4.20;1.10;;;;;;;26.71;45.20;99993.88;5046780;28;20036;-75
2022/05/28 04:10:47;;;;;;;4.97;1.45;;;;;;;26.71;45.46;100001.09;5047978;28;20029;-71
2022/05/28 04:13:13;;;;;;;4.30;1.15;;;;;;;26.70;45.20;99989.59;5046978;28;20090;-71
2022/05/28 04:15:38;;;;;;;2.40;1.08;;;;;;;26.70;45.31;100002.94;5047288;28;20021;-71
2022/05/28 04:18:05;;;;;;;3.05;1.20;;;;;;;26.69;45.41;99998.66;5046525;28;20040;-70
2022/05/28 04:20:31;;;;;;;5.40;1.23;;;;;;;26.70;45.41;99999.47;5046172;28;20040;-73
2022/05/28 04:22:56;;;;;;;2.95;0.82;;;;;;;26.69;45.31;100011.22;5046625;28;20059;-73
2022/05/28 04:25:22;;;;;;;1.95;1.05;;;;;;;26.68;45.12;100002.41;5047846;28;20185;-74
2022/05/28 04:27:47;;;;;;;3.55;1.10;;;;;;;26.69;45.56;100000.53;5045731;28;20021;-70
2022/05/28 04:30:13;;;;;;;4.57;1.30;;;;;;;26.69;45.70;100005.88;5046841;28;20137;-71
2022/05/28 04:32:38;;;;;;;3.33;1.27;;;;;;;26.68;45.63;100015.78;5044408;28;20193;-73
2022/05/28 04:35:04;;;;;;;4.28;1.10;;;;;;;26.68;45.56;100023.78;5042560;28;20025;-73
2022/05/28 04:37:29;;;;;;;3.97;1.00;;;;;;;26.68;45.78;100022.97;5047040;28;20025;-73
2022/05/28 04:39:55;;;;;;;2.83;1.00;;;;;;;26.67;45.76;100016.84;5047701;28;20560;-73
2022/05/28 04:42:20;;;;;;;3.35;1.08;;;;;;;26.66;46.09;100007.22;5046946;28;20473;-75
2022/05/28 04:44:46;;;;;;;3.05;1.10;;;;;;;26.66;45.96;99995.72;5044606;28;20025;-71
2022/05/28 04:47:11;;;;;;;5.90;1.50;;;;;;;26.67;46.00;100008.00;5045967;28;20354;-70
2022/05/28 04:49:37;;;;;;;5.30;1.25;;;;;;;26.66;46.23;99999.19;5047568;28;20155;-72
2022/05/28 04:52:03;;;;;;;4.07;1.20;;;;;;;26.65;46.15;100010.94;5047405;28;20243;-73
2022/05/28 04:54:28;;;;;;;3.58;1.20;;;;;;;26.65;46.41;100013.63;5045682;28;20048;-71
2022/05/28 04:56:54;;;;;;;2.70;1.00;;;;;;;26.65;46.37;100007.47;5047379;28;20025;-70
2022/05/28 04:59:19;;;;;;;5.05;1.15;;;;;;;26.66;46.43;100009.06;5038449;28;20470;-72
2022/05/28 05:01:44;;;;;;;2.42;1.08;;;;;;;26.65;46.59;100002.94;5044341;28;20252;-73
2022/05/28 05:04:10;;;;;;;2.53;0.90;;;;;;;26.64;46.82;99993.31;5045839;28;20048;-73
2022/05/28 05:06:35;;;;;;;2.30;1.13;;;;;;;26.64;46.73;100004.00;5045979;28;20715;-74
2022/05/28 05:09:01;;;;;;;2.45;0.98;;;;;;;26.64;46.74;100009.34;5047324;28;20392;-73
2022/05/28 05:11:26;;;;;;;4.13;0.93;;;;;;;26.64;46.90;100006.66;5047425;28;20033;-72
2022/05/28 05:13:52;;;;;;;2.83;0.90;;;;;;;26.64;47.07;100011.22;5044764;28;20044;-71
2022/05/28 05:16:18;;;;;;;4.85;1.42;;;;;;;26.63;47.29;100010.41;5044578;28;20128;-74
2022/05/28 05:18:43;;;;;;;3.78;1.20;;;;;;;26.62;47.34;100003.44;5046651;28;20029;-71
2022/05/28 05:21:12;;;;;;;4.35;1.50;;;;;;;26.62;47.40;100003.44;5046040;28;20040;-74
2022/05/28 05:23:42;;;;;;;3.38;1.30;;;;;;;26.60;47.42;100010.91;5046188;28;20021;-71
2022/05/28 05:26:12;;;;;;;4.43;1.42;;;;;;;26.62;47.61;100024.03;5046353;28;20037;-71
2022/05/28 05:28:38;;;;;;;3.97;1.40;;;;;;;26.60;47.73;100026.94;5049449;28;20025;-75
2022/05/28 05:31:03;;;;;;;3.08;1.17;;;;;;;26.59;47.66;100036.03;5050240;28;20079;-74
2022/05/28 05:33:29;;;;;;;2.40;0.95;;;;;;;26.57;47.82;100035.47;5046932;28;20144;-72
2022/05/28 05:35:54;;;;;;;3.22;1.23;;;;;;;26.57;47.92;100037.34;5050845;28;20029;-72
2022/05/28 05:38:20;;;;;;;3.90;1.20;;;;;;;26.61;48.82;100041.13;5050771;28;20029;-70
2022/05/28 05:40:45;;;;;;;3.17;1.63;;;;;;;26.64;49.31;100043.28;5050662;28;20442;-70
2022/05/28 05:43:10;;;;;;;5.13;1.50;;;;;;;26.67;49.96;100059.59;5030559;28;20028;-74
2022/05/28 05:45:37;;;;;;;3.75;1.17;;;;;;;26.67;49.81;100048.91;5051037;28;20024;-71
2022/05/28 05:48:03;;;;;;;6.18;0.77;;;;;;;26.64;49.79;100057.44;5049462;28;20029;-75
2022/05/28 05:50:28;;;;;;;3.65;0.90;;;;;;;26.59;50.36;100062.75;5049300;28;20017;-72
2022/05/28 05:52:54;;;;;;;5.45;1.15;;;;;;;26.58;50.95;100055.78;5049406;28;20029;-74
2022/05/28 05:55:19;;;;;;;3.75;1.08;;;;;;;26.58;50.90;100061.13;5049173;28;20029;-72
2022/05/28 05:57:45;;;;;;;4.22;0.85;;;;;;;26.57;50.90;100067.53;5049690;28;20448;-72
2022/05/28 06:00:10;;;;;;;4.72;0.73;;;;;;;26.56;50.66;100079.28;5049864;28;20487;-72
2022/05/28 06:02:36;;;;;;;5.05;0.47;;;;;;;26.54;50.05;100081.41;5050081;28;20029;-72
2022/05/28 06:05:01;;;;;;;1.40;0.32;;;;;;;26.54;49.42;100083.28;5046756;28;20120;-73
2022/05/28 06:07:27;;;;;;;7.75;0.50;;;;;;;26.51;49.35;100095.28;5048789;28;20056;-73
2022/05/28 06:09:52;;;;;;;1.67;0.43;;;;;;;26.50;49.19;100107.03;5049057;28;20083;-75
2022/05/28 06:12:18;;;;;;;3.72;0.40;;;;;;;26.49;49.08;100112.63;5048839;28;20036;-73
2022/05/28 06:14:43;;;;;;;4.30;0.30;;;;;;;26.49;48.88;100132.13;5043509;28;20029;-73
2022/05/28 06:17:09;;;;;;;4.05;0.20;;;;;;;26.47;48.41;100144.94;5046691;28;20064;-74
2022/05/28 06:19:34;;;;;;;2.25;0.32;;;;;;;26.46;47.94;100158.59;5049111;28;20036;-73
2022/05/28 06:22:00;;;;;;;1.92;0.20;;;;;;;26.36;47.84;100137.94;5049525;28;20025;-73
2022/05/28 06:24:26;;;;;;;1.58;0.15;;;;;;;26.27;47.56;100112.75;5047164;28;20029;-73
2022/05/28 06:26:52;;;;;;;1.98;0.20;;;;;;;26.24;47.79;100111.38;5047513;28;20021;-72
2022/05/28 06:29:17;;;;;;;0.35;0.10;;;;;;;26.27;47.34;100110.88;5048359;28;20047;-72
2022/05/28 06:31:43;;;;;;;2.15;0.20;;;;;;;26.27;47.47;100116.22;5049626;28;20035;-71
2022/05/28 06:34:08;;;;;;;1.60;0.10;;;;;;;26.28;47.26;100122.34;5047189;28;20025;-73
2022/05/28 06:36:34;;;;;;;1.52;0.10;;;;;;;26.28;47.10;100119.69;5047136;28;20530;-72
2022/05/28 06:38:59;;;;;;;2.70;0.20;;;;;;;26.27;46.93;100094.06;5048361;28;20563;-73
2022/05/28 06:41:25;;;;;;;0.52;0.10;;;;;;;26.25;46.98;100082.81;5045879;28;20036;-73
2022/05/28 06:43:51;;;;;;;1.30;0.32;;;;;;;26.23;46.76;100075.06;5046520;28;20063;-73
2022/05/28 06:46:17;;;;;;;0.60;0.10;;;;;;;26.23;46.32;100084.94;5046960;28;20032;-72
2022/05/28 06:48:42;;;;;;;0.40;0.10;;;;;;;26.21;46.22;100079.06;5044986;28;20526;-72
2022/05/28 06:51:09;;;;;;;3.78;0.10;;;;;;;26.21;46.04;100084.38;5049226;28;20143;-72
2022/05/28 06:53:45;;;;;;;0.40;0.00;;;;;;;26.20;46.08;100088.94;5049161;28;20025;-72
2022/05/28 06:56:11;;;;;;;0.32;0.10;;;;;;;26.18;46.06;100091.03;5046287;28;20020;-72
2022/05/28 06:58:37;;;;;;;3.42;0.10;;;;;;;26.15;46.03;100088.88;5034496;28;20033;-71
2022/05/28 07:01:04;;;;;;;4.00;0.10;;;;;;;26.17;46.16;100097.44;5048568;28;20043;-73
2022/05/28 07:03:30;;;;;;;6.65;0.10;;;;;;;26.18;45.88;100104.41;5046961;28;20036;-73
2022/05/28 07:05:56;;;;;;;1.38;0.00;;;;;;;26.18;45.99;100091.03;5044067;28;20049;-73
2022/05/28 07:08:23;;;;;;;1.17;0.03;;;;;;;26.19;46.11;100102.53;5047010;28;20107;-72
2022/05/28 07:10:52;;;;;;;1.20;0.10;;;;;;;26.22;46.11;100110.03;5048660;28;20034;-72
2022/05/28 07:13:20;;;;;;;2.13;0.00;;;;;;;26.21;45.97;100108.41;5047326;28;20021;-72
2022/05/28 07:15:45;;;;;;;0.20;0.00;;;;;;;26.21;46.04;100113.75;5045046;28;20028;-73
2022/05/28 07:18:11;;;;;;;0.43;0.00;;;;;;;26.21;46.13;100125.25;5048460;28;20377;-73
2022/05/28 07:20:37;;;;;;;0.60;0.10;;;;;;;26.24;46.27;100129.28;5047724;28;20044;-73
2022/05/28 07:23:07;;;;;;;2.05;0.10;;;;;;;26.23;46.25;100123.13;5048020;28;20037;-73
2022/05/28 07:25:33;;;;;;;1.65;0.13;;;;;;;26.25;46.43;100131.69;5044440;28;20110;-73
2022/05/28 07:27:59;;;;;;;1.85;0.10;;;;;;;26.25;46.69;100123.69;5047731;28;20492;-73
2022/05/28 07:30:24;;;;;;;0.90;0.10;;;;;;;26.26;46.78;100124.47;5047010;28;20021;-72
2022/05/28 07:32:50;;;;;;;1.65;0.00;;;;;;;26.25;46.98;100118.34;5048178;28;20033;-72
2022/05/28 07:35:15;;;;;;;1.52;0.10;;;;;;;26.26;47.08;100124.47;5046611;28;20064;-72
2022/05/28 07:37:41;;;;;;;0.90;0.10;;;;;;;26.26;47.27;100119.16;5046589;28;20123;-72
2022/05/28 07:40:07;;;;;;;0.43;0.10;;;;;;;26.27;47.18;100128.75;5047835;28;20384;-73
2022/05/28 07:42:32;;;;;;;0.70;0.00;;;;;;;26.27;47.43;100124.22;5047721;28;20518;-71
2022/05/28 07:44:57;;;;;;;2.60;0.20;;;;;;;26.27;47.52;100112.75;5046158;28;20035;-72
2022/05/28 07:47:23;;;;;;;0.50;0.10;;;;;;;26.28;47.69;100127.69;5043293;28;20033;-73
2022/05/28 07:49:48;;;;;;;0.50;0.10;;;;;;;26.26;47.68;100148.50;5043481;28;20032;-73
2022/05/28 07:52:14;;;;;;;1.88;0.13;;;;;;;26.26;47.52;100153.84;5047196;28;20043;-72
2022/05/28 07:54:39;;;;;;;1.70;0.10;;;;;;;26.24;47.36;100156.78;5047675;28;20044;-74
2022/05/28 07:57:05;;;;;;;1.13;0.10;;;;;;;26.24;46.93;100153.31;5045864;28;20441;-73
2022/05/28 07:59:31;;;;;;;0.30;0.03;;;;;;;26.21;46.65;100162.63;5045283;28;20052;-73
2022/05/28 08:01:57;;;;;;;0.82;0.20;;;;;;;26.19;46.09;100180.75;5044569;28;20076;-73
2022/05/28 08:04:23;;;;;;;0.20;0.00;;;;;;;26.17;45.77;100172.19;5046558;28;20044;-73
2022/05/28 08:06:48;;;;;;;1.85;0.00;;;;;;;26.18;45.39;100173.00;5047506;28;20036;-72
2022/05/28 08:09:14;;;;;;;0.13;0.00;;;;;;;26.19;45.61;100169.28;5045898;28;20033;-71
2022/05/28 08:11:39;;;;;;;1.25;0.03;;;;;;;26.21;45.82;100172.50;5042702;28;22531;-74
2022/05/28 08:14:05;;;;;;;7.30;0.40;;;;;;;26.23;46.53;100165.84;5042131;28;20121;-71
2022/05/28 08:16:31;;;;;;;3.10;0.10;;;;;;;26.31;47.18;100167.28;5046914;28;20036;-72
2022/05/28 08:18:57;;;;;;;6.90;0.43;;;;;;;26.39;47.86;100178.31;5043484;28;20024;-72
2022/05/28 08:24:07;;;;;;;3.20;0.10;;;;;;;26.39;47.46;100148.13;5042515;28;20098;-71
2022/05/28 08:26:35;;;;;;;6.70;0.20;;;;;;;26.38;47.38;100138.50;5046414;28;20071;-72
2022/05/28 08:29:00;;;;;;;1.90;0.10;;;;;;;26.36;46.68;100128.06;5044997;28;20035;-72
2022/05/28 08:31:26;;;;;;;4.18;0.40;;;;;;;26.36;46.43;100127.25;5043581;28;20456;-71
2022/05/28 08:33:51;;;;;;;1.88;0.08;;;;;;;26.35;46.40;100129.13;5044525;28;21307;-73
2022/05/28 08:36:18;;;;;;;1.23;0.05;;;;;;;26.36;46.27;100140.63;5042838;28;20037;-71
2022/05/28 08:38:44;;;;;;;2.30;0.10;;;;;;;26.37;46.23;100139.56;5043863;28;20083;-72
2022/05/28 08:41:12;;;;;;;1.88;0.10;;;;;;;26.36;45.73;100148.63;5044625;28;20029;-73
2022/05/28 08:43:59;;;;;;;0.73;0.00;;;;;;;26.34;45.11;100161.44;5044988;28;20025;-73
2022/05/28 08:46:27;;;;;;;3.00;0.08;;;;;;;26.33;45.12;100149.13;5041476;28;20141;-71
2022/05/28 08:48:56;;;;;;;1.85;0.10;;;;;;;26.35;44.74;100152.34;5044146;28;20033;-71
2022/05/28 08:51:48;;;;;;;1.40;0.13;;;;;;;26.31;44.24;100132.56;5046358;28;20354;-74
2022/05/28 08:54:34;;;;;;;2.45;0.10;;;;;;;26.31;44.29;100137.91;5043695;28;20456;-74
2022/05/28 08:57:07;;;;;;;2.22;0.10;;;;;;;26.31;44.57;100143.25;5041400;28;20151;-74
2022/05/28 08:59:42;;;;;;;2.95;0.10;;;;;;;26.32;44.66;100150.19;5029154;28;20029;-70
2022/05/28 09:02:16;;;;;;;1.33;0.10;;;;;;;26.34;44.58;100154.22;5046715;28;20224;-74
2022/05/28 09:04:44;;;;;;;4.15;0.17;;;;;;;26.35;44.72;100153.16;5049235;28;20515;-71
2022/05/28 09:07:12;;;;;;;3.88;0.17;;;;;;;26.35;44.64;100145.16;5009505;28;1145527;-73
2022/05/28 09:09:49;;;;;;;1.38;0.10;;;;;;;26.36;44.41;100144.09;5050287;28;20084;-75
2022/05/28 09:12:27;;;;;;;0.77;0.03;;;;;;;26.34;44.31;100148.06;5049958;28;20148;-72
2022/05/28 09:14:53;;;;;;;4.18;0.10;;;;;;;26.35;44.12;100131.00;5050986;28;20036;-75
2022/05/28 09:17:32;;;;;;;1.45;0.00;;;;;;;26.29;43.64;100142.66;5052773;28;20033;-70
2022/05/28 09:20:03;;;;;;;2.67;0.10;;;;;;;26.23;43.18;100147.16;5053308;28;20072;-71
2022/05/28 09:22:29;;;;;;;4.00;0.30;;;;;;;26.18;42.66;100140.97;5056239;28;20033;-74
2022/05/28 09:24:54;;;;;;;2.00;0.10;;;;;;;26.19;42.50;100142.56;5054361;28;20025;-71
2022/05/28 09:27:47;;;;;;;3.83;0.17;;;;;;;26.15;41.59;100142.28;5054164;28;20032;-73
2022/05/28 09:30:39;;;;;;;1.23;0.20;;;;;;;26.13;41.81;100145.22;5033107;28;20443;-74
2022/05/28 09:33:41;;;;;;;5.97;0.25;;;;;;;26.10;41.57;100131.56;5055954;28;20123;-73
2022/05/28 09:36:15;;;;;;;3.47;0.30;;;;;;;26.17;41.58;100134.03;5055026;28;20064;-71
2022/05/28 09:39:05;;;;;;;4.20;0.50;;;;;;;26.19;41.67;100126.56;5052672;28;20679;-71
2022/05/28 09:41:47;;;;;;;3.70;0.30;;;;;;;26.21;41.80;100124.44;5049237;28;20037;-73
2022/05/28 09:44:22;;;;;;;1.10;0.20;;;;;;;26.23;41.91;100130.34;5050707;28;20095;-72
2022/05/28 09:46:48;;;;;;;1.40;0.20;;;;;;;26.24;41.72;100129.28;5050376;28;20439;-73
2022/05/28 09:49:15;;;;;;;3.08;0.30;;;;;;;26.23;41.68;100122.31;5048287;28;20066;-74
2022/05/28 09:51:53;;;;;;;1.77;0.20;;;;;;;26.22;41.52;100123.38;5049470;28;20465;-74
2022/05/28 09:54:23;;;;;;;1.00;0.10;;;;;;;26.23;41.79;100122.31;5050417;28;20047;-72
2022/05/28 09:57:11;;;;;;;0.50;0.10;;;;;;;26.21;41.52;100127.09;5050206;28;20025;-73
2022/05/28 09:59:55;;;;;;;1.40;0.22;;;;;;;26.21;41.65;100116.44;5048897;28;20044;-73
2022/05/28 10:02:27;;;;;;;3.70;0.30;;;;;;;26.20;41.88;100117.50;5049335;28;20044;-72
2022/05/28 10:05:14;;;;;;;0.60;0.10;;;;;;;26.19;41.93;100121.22;5049362;28;20046;-71
2022/05/28 10:07:50;;;;;;;1.55;0.10;;;;;;;26.20;41.87;100126.31;5049970;28;20056;-72
2022/05/28 10:10:35;;;;;;;0.90;0.20;;;;;;;26.17;41.62;100124.16;5048961;28;20086;-71
2022/05/28 10:13:14;;;;;;;0.45;0.20;;;;;;;26.18;41.65;100133.75;5050010;28;20112;-71
2022/05/28 10:15:46;;;;;;;2.63;0.10;;;;;;;26.17;41.58;100118.81;5050024;28;20071;-73
2022/05/28 10:18:16;;;;;;;0.52;0.10;;;;;;;26.19;41.57;100115.88;5049788;28;20087;-72
2022/05/28 10:20:42;;;;;;;0.28;0.10;;;;;;;26.18;41.50;100107.06;5047848;28;20075;-72
2022/05/28 10:23:17;;;;;;;0.50;0.10;;;;;;;26.18;41.36;100114.28;5048865;28;20040;-73
2022/05/28 10:25:50;;;;;;;1.75;0.10;;;;;;;26.17;41.39;100113.47;5049786;28;20519;-71
2022/05/28 10:28:43;;;;;;;0.50;0.00;;;;;;;26.15;41.37;100110.25;5049763;28;20029;-72
2022/05/28 10:31:24;;;;;;;0.47;0.10;;;;;;;26.15;41.33;100107.56;5048607;28;20424;-71
2022/05/28 10:33:49;;;;;;;0.30;0.10;;;;;;;26.17;41.43;100102.78;5049807;28;20036;-73
2022/05/28 10:36:17;;;;;;;0.57;0.10;;;;;;;26.19;41.14;100107.88;5048792;28;20385;-72
2022/05/28 10:38:43;;;;;;;0.15;0.05;;;;;;;26.19;41.44;100099.84;5049711;28;20087;-71
2022/05/28 10:41:20;;;;;;;0.65;0.05;;;;;;;26.18;41.16;100116.94;5048025;28;20024;-71
2022/05/28 10:43:46;;;;;;;0.20;0.10;;;;;;;26.19;41.18;100107.88;5049250;28;20043;-73
2022/05/28 10:46:38;;;;;;;0.35;0.10;;;;;;;26.19;41.12;100115.88;5049617;28;20021;-71
2022/05/28 10:49:13;;;;;;;0.28;0.00;;;;;;;26.17;41.03;100134.03;5011356;28;20041;-71
2022/05/28 10:52:07;;;;;;;1.80;0.10;;;;;;;26.15;40.72;100104.09;5048092;28;20037;-71
2022/05/28 10:54:45;;;;;;;1.23;0.17;;;;;;;26.16;40.95;100127.06;5049116;28;20069;-71
2022/05/28 10:57:13;;;;;;;0.40;0.08;;;;;;;26.16;40.57;100121.72;5049267;28;20033;-72
2022/05/28 11:00:05;;;;;;;0.43;0.10;;;;;;;26.12;40.46;100126.78;5049388;28;20035;-72
2022/05/28 11:02:55;;;;;;;1.98;0.10;;;;;;;26.10;40.38;100129.69;5044817;28;20037;-70
2022/05/28 11:05:40;;;;;;;3.17;0.10;;;;;;;26.08;40.33;100113.13;5038358;28;20036;-70
2022/05/28 11:08:11;;;;;;;0.30;0.10;;;;;;;26.09;40.45;100127.28;5037499;28;20041;-71
2022/05/28 11:11:02;;;;;;;0.20;0.00;;;;;;;26.09;40.21;100138.75;5049071;28;20071;-71
2022/05/28 11:13:30;;;;;;;0.95;0.10;;;;;;;26.09;40.13;100141.44;5048603;28;20033;-73
2022/05/28 11:16:26;;;;;;;3.95;0.35;;;;;;;26.07;40.37;100146.22;5048771;28;20035;-71
2022/05/28 11:19:03;;;;;;;1.83;0.10;;;;;;;26.07;40.26;100146.22;5047511;28;20579;-72
2022/05/28 11:21:53;;;;;;;0.85;0.00;;;;;;;26.07;40.59;100148.09;5048296;28;20591;-72
2022/05/28 11:24:18;;;;;;;0.52;0.10;;;;;;;26.07;40.58;100151.56;5048576;28;20040;-72
2022/05/28 11:26:52;;;;;;;1.15;0.10;;;;;;;26.08;40.89;100139.00;5048105;28;20021;-70
2022/05/28 11:29:56;;;;;;;3.87;0.00;;;;;;;26.04;40.89;100128.03;5047331;28;20068;-71
2022/05/28 11:32:34;;;;;;;0.30;0.10;;;;;;;26.06;41.14;100130.47;5041286;28;20106;-72
2022/05/28 11:35:32;;;;;;;0.77;0.10;;;;;;;26.07;40.92;100124.06;5043785;28;20055;-72
2022/05/28 11:38:04;;;;;;;1.40;0.10;;;;;;;26.08;41.23;100120.31;5027031;28;20052;-72
2022/05/28 11:40:44;;;;;;;0.38;0.03;;;;;;;26.10;41.16;100115.53;5042161;28;20067;-73
2022/05/28 11:43:21;;;;;;;1.95;0.10;;;;;;;26.10;40.96;100104.88;5044066;28;20032;-71